sensor_id;sensor_type;location;lat;lon;timestamp;pressure;altitude;pressure_sealevel;temperature;humidity
56863;BME280;42746;49.976;20.182;2022-07-22T00:01:12;98246.34;;;19.57;77.84
56863;BME280;42746;49.976;20.182;2022-07-22T00:03:15;98242.50;;;19.54;78.38
56863;BME280;42746;49.976;20.182;2022-07-22T00:05:16;98244.28;;;19.52;78.04
56863;BME280;42746;49.976;20.182;2022-07-22T00:07:16;98243.53;;;19.51;78.14
56863;BME280;42746;49.976;20.182;2022-07-22T00:09:17;98240.22;;;19.53;77.80
56863;BME280;42746;49.976;20.182;2022-07-22T00:11:18;98248.56;;;19.53;78.22
56863;BME280;42746;49.976;20.182;2022-07-22T00:13:19;98240.22;;;19.53;78.26
56863;BME280;42746;49.976;20.182;2022-07-22T00:15:20;98241.75;;;19.54;77.67
56863;BME280;42746;49.976;20.182;2022-07-22T00:17:21;98246.34;;;19.57;77.28
56863;BME280;42746;49.976;20.182;2022-07-22T00:19:23;98248.38;;;19.62;76.87
56863;BME280;42746;49.976;20.182;2022-07-22T00:21:24;98244.88;;;19.67;76.29
56863;BME280;42746;49.976;20.182;2022-07-22T00:23:25;98236.59;;;19.73;75.60
56863;BME280;42746;49.976;20.182;2022-07-22T00:25:26;98241.94;;;19.77;74.65
56863;BME280;42746;49.976;20.182;2022-07-22T00:27:27;98235.91;;;19.84;73.86
56863;BME280;42746;49.976;20.182;2022-07-22T00:29:28;98239.47;;;19.90;73.03
56863;BME280;42746;49.976;20.182;2022-07-22T00:31:29;98238.25;;;19.97;72.62
56863;BME280;42746;49.976;20.182;2022-07-22T00:33:30;98236.00;;;20.01;72.51
56863;BME280;42746;49.976;20.182;2022-07-22T00:35:32;98232.47;;;20.00;72.51
56863;BME280;42746;49.976;20.182;2022-07-22T00:37:33;98224.34;;;19.97;72.24
56863;BME280;42746;49.976;20.182;2022-07-22T00:39:34;98229.69;;;20.00;71.42
56863;BME280;42746;49.976;20.182;2022-07-22T00:41:35;98225.88;;;20.03;71.12
56863;BME280;42746;49.976;20.182;2022-07-22T00:43:52;98219.31;;;20.06;70.61
56863;BME280;42746;49.976;20.182;2022-07-22T00:45:53;98221.09;;;20.09;70.25
56863;BME280;42746;49.976;20.182;2022-07-22T00:47:54;98226.94;;;20.11;69.77
56863;BME280;42746;49.976;20.182;2022-07-22T00:49:55;98222.88;;;20.12;69.19
56863;BME280;42746;49.976;20.182;2022-07-22T00:51:57;98230.00;;;20.13;68.93
56863;BME280;42746;49.976;20.182;2022-07-22T00:54:00;98230.50;;;20.18;68.27
56863;BME280;42746;49.976;20.182;2022-07-22T00:56:01;98240.69;;;20.21;68.03
56863;BME280;42746;49.976;20.182;2022-07-22T00:58:03;98242.97;;;20.22;68.00
56863;BME280;42746;49.976;20.182;2022-07-22T01:00:07;98239.13;;;20.20;68.40
56863;BME280;42746;49.976;20.182;2022-07-22T01:02:09;98240.63;;;20.09;70.21
56863;BME280;42746;49.976;20.182;2022-07-22T01:04:10;98232.41;;;19.89;72.37
56863;BME280;42746;49.976;20.182;2022-07-22T01:06:11;98227.75;;;19.74;72.39
56863;BME280;42746;49.976;20.182;2022-07-22T01:08:13;98218.78;;;19.65;72.56
56863;BME280;42746;49.976;20.182;2022-07-22T01:10:14;98209.41;;;19.62;72.77
56863;BME280;42746;49.976;20.182;2022-07-22T01:12:15;98213.97;;;19.65;72.84
56863;BME280;42746;49.976;20.182;2022-07-22T01:14:16;98221.09;;;19.66;73.34
56863;BME280;42746;49.976;20.182;2022-07-22T01:16:17;98216.78;;;19.65;73.71
56863;BME280;42746;49.976;20.182;2022-07-22T01:18:18;98217.03;;;19.67;73.25
56863;BME280;42746;49.976;20.182;2022-07-22T01:20:21;98206.41;;;19.71;72.08
56863;BME280;42746;49.976;20.182;2022-07-22T01:22:21;98210.56;;;19.82;71.50
56863;BME280;42746;49.976;20.182;2022-07-22T01:24:23;98212.91;;;19.89;70.48
56863;BME280;42746;49.976;20.182;2022-07-22T01:26:24;98212.41;;;19.96;70.12
56863;BME280;42746;49.976;20.182;2022-07-22T01:28:25;98213.44;;;19.99;71.17
56863;BME280;42746;49.976;20.182;2022-07-22T01:30:26;98208.56;;;19.88;72.72
56863;BME280;42746;49.976;20.182;2022-07-22T01:32:27;98201.31;;;19.64;75.48
56863;BME280;42746;49.976;20.182;2022-07-22T01:34:28;98205.44;;;19.37;78.22
56863;BME280;42746;49.976;20.182;2022-07-22T01:36:30;98205.03;;;19.18;78.91
56863;BME280;42746;49.976;20.182;2022-07-22T01:38:31;98206.19;;;19.06;80.42
56863;BME280;42746;49.976;20.182;2022-07-22T01:40:32;98211.22;;;19.02;80.40
56863;BME280;42746;49.976;20.182;2022-07-22T01:42:33;98199.56;;;18.97;80.65
56863;BME280;42746;49.976;20.182;2022-07-22T01:44:34;98209.63;;;18.95;80.85
56863;BME280;42746;49.976;20.182;2022-07-22T01:46:35;98208.59;;;18.92;80.69
56863;BME280;42746;49.976;20.182;2022-07-22T01:48:36;98213.91;;;18.90;80.75
56863;BME280;42746;49.976;20.182;2022-07-22T01:50:37;98209.31;;;18.87;80.83
56863;BME280;42746;49.976;20.182;2022-07-22T01:52:39;98212.56;;;18.86;81.15
56863;BME280;42746;49.976;20.182;2022-07-22T01:54:40;98210.28;;;18.84;80.71
56863;BME280;42746;49.976;20.182;2022-07-22T01:56:41;98208.28;;;18.85;80.72
56863;BME280;42746;49.976;20.182;2022-07-22T01:58:42;98216.84;;;18.81;81.12
56863;BME280;42746;49.976;20.182;2022-07-22T02:00:43;98216.50;;;18.73;81.80
56863;BME280;42746;49.976;20.182;2022-07-22T02:02:44;98209.59;;;18.69;81.48
56863;BME280;42746;49.976;20.182;2022-07-22T02:04:45;98211.91;;;18.70;81.15
56863;BME280;42746;49.976;20.182;2022-07-22T02:06:46;98213.44;;;18.71;80.83
56863;BME280;42746;49.976;20.182;2022-07-22T02:08:48;98217.78;;;18.78;79.70
56863;BME280;42746;49.976;20.182;2022-07-22T02:10:49;98213.34;;;18.86;79.08
56863;BME280;42746;49.976;20.182;2022-07-22T02:12:50;98213.19;;;18.95;78.17
56863;BME280;42746;49.976;20.182;2022-07-22T02:14:50;98214.75;;;19.02;77.56
56863;BME280;42746;49.976;20.182;2022-07-22T02:16:51;98214.75;;;19.02;76.95
56863;BME280;42746;49.976;20.182;2022-07-22T02:18:52;98215.50;;;19.03;76.86
56863;BME280;42746;49.976;20.182;2022-07-22T02:20:53;98211.75;;;19.06;76.38
56863;BME280;42746;49.976;20.182;2022-07-22T02:22:54;98210.50;;;19.07;75.93
56863;BME280;42746;49.976;20.182;2022-07-22T02:24:56;98215.56;;;19.08;75.81
56863;BME280;42746;49.976;20.182;2022-07-22T02:26:57;98207.22;;;19.08;75.17
56863;BME280;42746;49.976;20.182;2022-07-22T02:28:58;98210.78;;;19.09;74.48
56863;BME280;42746;49.976;20.182;2022-07-22T02:30:59;98214.81;;;19.08;73.50
56863;BME280;42746;49.976;20.182;2022-07-22T02:33:00;98208.25;;;19.11;72.41
56863;BME280;42746;49.976;20.182;2022-07-22T02:35:01;98216.19;;;19.18;71.79
56863;BME280;42746;49.976;20.182;2022-07-22T02:37:02;98218.22;;;19.23;71.39
56863;BME280;42746;49.976;20.182;2022-07-22T02:39:03;98229.91;;;19.27;70.37
56863;BME280;42746;49.976;20.182;2022-07-22T02:41:06;98238.53;;;19.29;69.98
56863;BME280;42746;49.976;20.182;2022-07-22T02:43:07;98240.47;;;19.23;71.55
56863;BME280;42746;49.976;20.182;2022-07-22T02:45:08;98231.41;;;18.96;75.21
56863;BME280;42746;49.976;20.182;2022-07-22T02:47:09;98222.22;;;18.64;77.24
56863;BME280;42746;49.976;20.182;2022-07-22T02:49:10;98228.63;;;18.29;81.86
56863;BME280;42746;49.976;20.182;2022-07-22T02:51:11;98229.38;;;18.09;82.46
56863;BME280;42746;49.976;20.182;2022-07-22T02:53:12;98230.84;;;18.05;83.64
56863;BME280;42746;49.976;20.182;2022-07-22T02:55:13;98236.13;;;18.02;84.87
56863;BME280;42746;49.976;20.182;2022-07-22T02:57:15;98231.03;;;18.01;84.30
56863;BME280;42746;49.976;20.182;2022-07-22T02:59:16;98230.06;;;18.04;85.60
56863;BME280;42746;49.976;20.182;2022-07-22T03:01:17;98227.59;;;18.06;85.14
56863;BME280;42746;49.976;20.182;2022-07-22T03:03:18;98229.16;;;18.13;84.34
56863;BME280;42746;49.976;20.182;2022-07-22T03:05:19;98225.09;;;18.29;82.95
56863;BME280;42746;49.976;20.182;2022-07-22T03:07:20;98235.66;;;18.45;81.68
56863;BME280;42746;49.976;20.182;2022-07-22T03:09:21;98229.75;;;18.64;80.14
56863;BME280;42746;49.976;20.182;2022-07-22T03:11:22;98240.03;;;18.78;79.02
56863;BME280;42746;49.976;20.182;2022-07-22T03:13:24;98233.09;;;18.88;78.21
56863;BME280;42746;49.976;20.182;2022-07-22T03:15:25;98237.22;;;18.98;77.38
56863;BME280;42746;49.976;20.182;2022-07-22T03:17:25;98236.03;;;19.05;76.73
56863;BME280;42746;49.976;20.182;2022-07-22T03:19:26;98242.91;;;19.10;76.55
56863;BME280;42746;49.976;20.182;2022-07-22T03:21:27;98248.78;;;19.17;75.84
56863;BME280;42746;49.976;20.182;2022-07-22T03:23:28;98253.16;;;19.24;75.86
56863;BME280;42746;49.976;20.182;2022-07-22T03:25:29;98261.34;;;19.33;76.36
56863;BME280;42746;49.976;20.182;2022-07-22T03:27:30;98267.25;;;19.47;77.46
56863;BME280;42746;49.976;20.182;2022-07-22T03:29:32;98271.94;;;19.61;78.09
56863;BME280;42746;49.976;20.182;2022-07-22T03:31:33;98282.69;;;19.74;78.95
56863;BME280;42746;49.976;20.182;2022-07-22T03:33:34;98286.06;;;19.84;80.45
56863;BME280;42746;49.976;20.182;2022-07-22T03:35:34;98288.66;;;19.93;81.57
56863;BME280;42746;49.976;20.182;2022-07-22T03:37:35;98282.34;;;19.98;83.38
56863;BME280;42746;49.976;20.182;2022-07-22T03:39:36;98277.34;;;20.08;84.10
56863;BME280;42746;49.976;20.182;2022-07-22T03:41:37;98281.97;;;20.17;84.67
56863;BME280;42746;49.976;20.182;2022-07-22T03:43:38;98281.72;;;20.26;84.56
56863;BME280;42746;49.976;20.182;2022-07-22T03:45:40;98286.34;;;20.34;84.89
56863;BME280;42746;49.976;20.182;2022-07-22T03:47:41;98275.22;;;20.40;85.11
56863;BME280;42746;49.976;20.182;2022-07-22T03:49:42;98289.94;;;20.46;84.93
56863;BME280;42746;49.976;20.182;2022-07-22T03:51:43;98287.97;;;20.52;84.73
56863;BME280;42746;49.976;20.182;2022-07-22T03:53:44;98283.69;;;20.63;84.84
56863;BME280;42746;49.976;20.182;2022-07-22T03:55:45;98281.19;;;20.70;84.75
56863;BME280;42746;49.976;20.182;2022-07-22T03:57:46;98276.91;;;20.81;84.50
56863;BME280;42746;49.976;20.182;2022-07-22T03:59:47;98275.94;;;20.89;84.07
56863;BME280;42746;49.976;20.182;2022-07-22T04:01:49;98268.84;;;21.05;83.51
56863;BME280;42746;49.976;20.182;2022-07-22T04:03:50;98284.63;;;21.25;82.75
56863;BME280;42746;49.976;20.182;2022-07-22T04:05:51;98282.09;;;21.33;81.79
56863;BME280;42746;49.976;20.182;2022-07-22T04:07:52;98281.09;;;21.42;81.85
56863;BME280;42746;49.976;20.182;2022-07-22T04:09:53;98283.13;;;21.47;81.31
56863;BME280;42746;49.976;20.182;2022-07-22T04:11:53;98287.72;;;21.50;81.06
56863;BME280;42746;49.976;20.182;2022-07-22T04:13:54;98281.88;;;21.48;81.06
56863;BME280;42746;49.976;20.182;2022-07-22T04:15:55;98281.13;;;21.53;81.09
56863;BME280;42746;49.976;20.182;2022-07-22T04:17:57;98295.09;;;21.70;81.24
56863;BME280;42746;49.976;20.182;2022-07-22T04:19:59;98287.69;;;21.84;79.71
56863;BME280;42746;49.976;20.182;2022-07-22T04:22:00;98287.91;;;21.97;79.31
56863;BME280;42746;49.976;20.182;2022-07-22T04:24:00;98298.31;;;22.14;78.95
56863;BME280;42746;49.976;20.182;2022-07-22T04:26:01;98285.59;;;22.35;78.02
56863;BME280;42746;49.976;20.182;2022-07-22T04:28:02;98299.50;;;22.52;77.36
56863;BME280;42746;49.976;20.182;2022-07-22T04:30:04;98292.81;;;22.72;76.30
56863;BME280;42746;49.976;20.182;2022-07-22T04:32:05;98288.44;;;22.82;74.97
56863;BME280;42746;49.976;20.182;2022-07-22T04:34:07;98290.94;;;22.92;73.84
56863;BME280;42746;49.976;20.182;2022-07-22T04:36:08;98289.34;;;23.02;73.91
56863;BME280;42746;49.976;20.182;2022-07-22T04:38:09;98292.38;;;23.10;72.58
56863;BME280;42746;49.976;20.182;2022-07-22T04:40:11;98286.00;;;23.15;72.15
56863;BME280;42746;49.976;20.182;2022-07-22T04:42:12;98293.84;;;23.16;71.68
56863;BME280;42746;49.976;20.182;2022-07-22T04:44:13;98282.56;;;23.28;71.79
56863;BME280;42746;49.976;20.182;2022-07-22T04:46:14;98285.63;;;23.30;70.38
56863;BME280;42746;49.976;20.182;2022-07-22T04:48:15;98289.16;;;23.36;70.05
56863;BME280;42746;49.976;20.182;2022-07-22T04:50:17;98295.72;;;23.44;69.95
56863;BME280;42746;49.976;20.182;2022-07-22T04:52:18;98288.50;;;23.54;69.31
56863;BME280;42746;49.976;20.182;2022-07-22T04:54:19;98292.00;;;23.60;68.66
56863;BME280;42746;49.976;20.182;2022-07-22T04:56:20;98290.19;;;23.63;68.57
56863;BME280;42746;49.976;20.182;2022-07-22T04:58:21;98290.16;;;23.69;68.55
56863;BME280;42746;49.976;20.182;2022-07-22T05:00:22;98284.72;;;23.82;67.42
56863;BME280;42746;49.976;20.182;2022-07-22T05:02:23;98288.75;;;23.87;67.03
56863;BME280;42746;49.976;20.182;2022-07-22T05:04:24;98293.84;;;23.88;66.67
56863;BME280;42746;49.976;20.182;2022-07-22T05:06:27;98294.78;;;23.96;66.34
56863;BME280;42746;49.976;20.182;2022-07-22T05:08:27;98290.13;;;24.05;66.13
56863;BME280;42746;49.976;20.182;2022-07-22T05:10:28;98291.28;;;24.15;65.61
56863;BME280;42746;49.976;20.182;2022-07-22T05:12:29;98291.09;;;24.32;66.23
56863;BME280;42746;49.976;20.182;2022-07-22T05:14:30;98290.38;;;24.50;64.38
56863;BME280;42746;49.976;20.182;2022-07-22T05:16:31;98297.69;;;24.59;63.21
56863;BME280;42746;49.976;20.182;2022-07-22T05:18:32;98285.00;;;24.52;63.26
56863;BME280;42746;49.976;20.182;2022-07-22T05:20:34;98298.91;;;24.64;63.69
56863;BME280;42746;49.976;20.182;2022-07-22T05:22:36;98294.22;;;24.91;62.25
56863;BME280;42746;49.976;20.182;2022-07-22T05:24:37;98296.19;;;25.15;62.30
56863;BME280;42746;49.976;20.182;2022-07-22T05:26:38;98295.56;;;25.41;60.59
56863;BME280;42746;49.976;20.182;2022-07-22T05:28:39;98293.50;;;25.74;60.73
56863;BME280;42746;49.976;20.182;2022-07-22T05:30:40;98289.59;;;26.09;59.04
56863;BME280;42746;49.976;20.182;2022-07-22T05:32:40;98297.50;;;26.38;56.90
56863;BME280;42746;49.976;20.182;2022-07-22T05:34:41;98294.66;;;26.78;56.63
56863;BME280;42746;49.976;20.182;2022-07-22T05:36:42;98299.66;;;27.19;53.93
56863;BME280;42746;49.976;20.182;2022-07-22T05:38:45;98295.44;;;27.68;52.55
56863;BME280;42746;49.976;20.182;2022-07-22T05:40:45;98295.53;;;27.55;51.16
56863;BME280;42746;49.976;20.182;2022-07-22T05:42:46;98288.13;;;27.73;51.94
56863;BME280;42746;49.976;20.182;2022-07-22T05:44:47;98300.72;;;27.51;52.67
56863;BME280;42746;49.976;20.182;2022-07-22T05:46:48;98303.69;;;27.11;53.96
56863;BME280;42746;49.976;20.182;2022-07-22T05:48:49;98294.88;;;26.66;54.39
56863;BME280;42746;49.976;20.182;2022-07-22T05:50:50;98294.69;;;26.24;55.66
56863;BME280;42746;49.976;20.182;2022-07-22T05:52:51;98298.47;;;26.00;57.53
56863;BME280;42746;49.976;20.182;2022-07-22T05:54:53;98300.28;;;25.98;57.83
56863;BME280;42746;49.976;20.182;2022-07-22T05:56:54;98306.50;;;25.90;58.86
56863;BME280;42746;49.976;20.182;2022-07-22T05:58:56;98313.84;;;25.80;58.67
56863;BME280;42746;49.976;20.182;2022-07-22T06:00:57;98314.25;;;25.71;58.73
56863;BME280;42746;49.976;20.182;2022-07-22T06:02:58;98315.81;;;25.85;59.90
56863;BME280;42746;49.976;20.182;2022-07-22T06:04:59;98305.25;;;26.05;59.46
56863;BME280;42746;49.976;20.182;2022-07-22T06:07:00;98315.00;;;26.04;57.41
56863;BME280;42746;49.976;20.182;2022-07-22T06:09:01;98313.41;;;25.76;57.85
56863;BME280;42746;49.976;20.182;2022-07-22T06:11:03;98316.81;;;25.56;59.55
56863;BME280;42746;49.976;20.182;2022-07-22T06:13:04;98325.78;;;25.16;60.88
56863;BME280;42746;49.976;20.182;2022-07-22T06:15:05;98331.84;;;24.82;62.39
56863;BME280;42746;49.976;20.182;2022-07-22T06:17:06;98321.19;;;24.56;62.58
56863;BME280;42746;49.976;20.182;2022-07-22T06:19:07;98312.84;;;24.26;64.38
56863;BME280;42746;49.976;20.182;2022-07-22T06:21:08;98314.06;;;24.06;66.59
56863;BME280;42746;49.976;20.182;2022-07-22T06:23:09;98320.59;;;23.89;67.26
56863;BME280;42746;49.976;20.182;2022-07-22T06:25:10;98323.44;;;23.78;67.97
56863;BME280;42746;49.976;20.182;2022-07-22T06:27:12;98327.19;;;23.61;69.59
56863;BME280;42746;49.976;20.182;2022-07-22T06:29:14;98325.72;;;23.49;70.97
56863;BME280;42746;49.976;20.182;2022-07-22T06:31:15;98316.06;;;23.50;71.33
56863;BME280;42746;49.976;20.182;2022-07-22T06:33:16;98321.66;;;23.50;70.88
56863;BME280;42746;49.976;20.182;2022-07-22T06:35:17;98327.25;;;23.50;71.50
56863;BME280;42746;49.976;20.182;2022-07-22T06:37:18;98324.13;;;23.59;71.57
56863;BME280;42746;49.976;20.182;2022-07-22T06:39:19;98324.03;;;23.71;70.47
56863;BME280;42746;49.976;20.182;2022-07-22T06:41:20;98321.38;;;23.90;70.48
56863;BME280;42746;49.976;20.182;2022-07-22T06:43:22;98324.00;;;24.07;68.67
56863;BME280;42746;49.976;20.182;2022-07-22T06:45:23;98321.16;;;24.12;68.80
56863;BME280;42746;49.976;20.182;2022-07-22T06:47:24;98322.13;;;24.15;68.81
56863;BME280;42746;49.976;20.182;2022-07-22T06:49:25;98325.66;;;24.21;67.52
56863;BME280;42746;49.976;20.182;2022-07-22T06:51:26;98324.06;;;24.26;66.69
56863;BME280;42746;49.976;20.182;2022-07-22T06:53:27;98313.06;;;24.28;66.89
56863;BME280;42746;49.976;20.182;2022-07-22T06:55:28;98320.84;;;24.41;67.38
56863;BME280;42746;49.976;20.182;2022-07-22T06:57:29;98320.09;;;24.40;66.56
56863;BME280;42746;49.976;20.182;2022-07-22T06:59:31;98317.34;;;24.34;66.54
56863;BME280;42746;49.976;20.182;2022-07-22T07:01:32;98308.44;;;24.30;67.83
56863;BME280;42746;49.976;20.182;2022-07-22T07:03:33;98300.38;;;24.46;67.19
56863;BME280;42746;49.976;20.182;2022-07-22T07:05:34;98306.47;;;24.50;65.17
56863;BME280;42746;49.976;20.182;2022-07-22T07:07:35;98305.53;;;24.66;65.44
56863;BME280;42746;49.976;20.182;2022-07-22T07:09:36;98298.56;;;24.92;64.37
56863;BME280;42746;49.976;20.182;2022-07-22T07:11:37;98302.66;;;25.10;63.30
56863;BME280;42746;49.976;20.182;2022-07-22T07:13:38;98304.84;;;25.36;63.57
56863;BME280;42746;49.976;20.182;2022-07-22T07:15:40;98297.31;;;25.44;60.39
56863;BME280;42746;49.976;20.182;2022-07-22T07:17:41;98309.56;;;25.28;60.87
56863;BME280;42746;49.976;20.182;2022-07-22T07:19:42;98307.13;;;25.38;61.96
56863;BME280;42746;49.976;20.182;2022-07-22T07:21:43;98311.06;;;25.48;59.85
56863;BME280;42746;49.976;20.182;2022-07-22T07:23:44;98306.13;;;25.67;60.08
56863;BME280;42746;49.976;20.182;2022-07-22T07:25:44;98311.88;;;25.75;59.16
56863;BME280;42746;49.976;20.182;2022-07-22T07:27:46;98310.94;;;25.86;59.20
56863;BME280;42746;49.976;20.182;2022-07-22T07:29:46;98307.00;;;25.95;58.57
56863;BME280;42746;49.976;20.182;2022-07-22T07:31:48;98309.41;;;26.04;57.98
56863;BME280;42746;49.976;20.182;2022-07-22T07:33:49;98304.19;;;26.08;57.48
56863;BME280;42746;49.976;20.182;2022-07-22T07:35:50;98304.94;;;26.08;58.05
56863;BME280;42746;49.976;20.182;2022-07-22T07:37:51;98300.28;;;26.11;58.47
56863;BME280;42746;49.976;20.182;2022-07-22T07:39:52;98309.09;;;26.21;58.47
56863;BME280;42746;49.976;20.182;2022-07-22T07:41:53;98304.94;;;26.22;58.42
56863;BME280;42746;49.976;20.182;2022-07-22T07:43:54;98303.78;;;26.30;57.32
56863;BME280;42746;49.976;20.182;2022-07-22T07:45:55;98310.69;;;26.43;57.20
56863;BME280;42746;49.976;20.182;2022-07-22T07:47:57;98297.94;;;26.42;56.97
56863;BME280;42746;49.976;20.182;2022-07-22T07:49:58;98303.97;;;26.46;56.91
56863;BME280;42746;49.976;20.182;2022-07-22T07:51:59;98299.44;;;26.43;56.81
56863;BME280;42746;49.976;20.182;2022-07-22T07:54:00;98294.66;;;26.51;56.98
56863;BME280;42746;49.976;20.182;2022-07-22T07:56:01;98297.38;;;26.57;56.06
56863;BME280;42746;49.976;20.182;2022-07-22T07:58:02;98291.88;;;26.64;55.42
56863;BME280;42746;49.976;20.182;2022-07-22T08:00:05;98303.34;;;26.66;55.83
56863;BME280;42746;49.976;20.182;2022-07-22T08:02:07;98304.84;;;26.54;55.56
56863;BME280;42746;49.976;20.182;2022-07-22T08:04:10;98298.88;;;26.44;56.73
56863;BME280;42746;49.976;20.182;2022-07-22T08:06:11;98299.88;;;26.47;56.76
56863;BME280;42746;49.976;20.182;2022-07-22T08:08:11;98310.47;;;26.41;56.55
56863;BME280;42746;49.976;20.182;2022-07-22T08:10:13;98308.44;;;26.41;57.14
56863;BME280;42746;49.976;20.182;2022-07-22T08:12:13;98312.63;;;26.48;56.99
56863;BME280;42746;49.976;20.182;2022-07-22T08:14:14;98308.34;;;26.60;56.42
56863;BME280;42746;49.976;20.182;2022-07-22T08:16:16;98310.47;;;26.81;56.54
56863;BME280;42746;49.976;20.182;2022-07-22T08:18:17;98309.25;;;27.03;55.44
56863;BME280;42746;49.976;20.182;2022-07-22T08:20:19;98314.69;;;27.22;55.25
56863;BME280;42746;49.976;20.182;2022-07-22T08:22:20;98312.09;;;27.24;52.84
56863;BME280;42746;49.976;20.182;2022-07-22T08:24:21;98316.03;;;27.07;52.08
56863;BME280;42746;49.976;20.182;2022-07-22T08:26:22;98317.38;;;26.93;53.32
56863;BME280;42746;49.976;20.182;2022-07-22T08:28:23;98314.00;;;26.95;52.44
56863;BME280;42746;49.976;20.182;2022-07-22T08:30:24;98316.78;;;27.08;53.02
56863;BME280;42746;49.976;20.182;2022-07-22T08:32:25;98323.19;;;27.08;53.66
56863;BME280;42746;49.976;20.182;2022-07-22T08:34:26;98330.75;;;27.14;53.41
56863;BME280;42746;49.976;20.182;2022-07-22T08:36:28;98322.94;;;27.20;53.47
56863;BME280;42746;49.976;20.182;2022-07-22T08:38:29;98326.41;;;27.26;52.82
56863;BME280;42746;49.976;20.182;2022-07-22T08:40:30;98333.47;;;27.19;53.76
56863;BME280;42746;49.976;20.182;2022-07-22T08:42:32;98336.84;;;27.18;54.20
56863;BME280;42746;49.976;20.182;2022-07-22T08:44:37;98345.09;;;27.02;55.46
56863;BME280;42746;49.976;20.182;2022-07-22T08:46:38;98337.31;;;26.95;54.94
56863;BME280;42746;49.976;20.182;2022-07-22T08:48:39;98335.88;;;27.02;55.57
56863;BME280;42746;49.976;20.182;2022-07-22T08:50:40;98339.44;;;27.16;54.84
56863;BME280;42746;49.976;20.182;2022-07-22T08:52:43;98334.22;;;27.20;54.99
56863;BME280;42746;49.976;20.182;2022-07-22T08:54:44;98335.94;;;27.36;54.82
56863;BME280;42746;49.976;20.182;2022-07-22T08:56:46;98332.19;;;27.55;53.63
56863;BME280;42746;49.976;20.182;2022-07-22T08:58:47;98340.88;;;27.43;54.89
56863;BME280;42746;49.976;20.182;2022-07-22T09:01:03;98339.53;;;27.23;54.15
56863;BME280;42746;49.976;20.182;2022-07-22T09:03:17;98338.53;;;27.21;54.46
56863;BME280;42746;49.976;20.182;2022-07-22T09:05:18;98334.00;;;27.31;54.13
56863;BME280;42746;49.976;20.182;2022-07-22T09:07:27;98337.03;;;27.20;54.95
56863;BME280;42746;49.976;20.182;2022-07-22T09:09:33;98334.88;;;27.26;54.68
56863;BME280;42746;49.976;20.182;2022-07-22T09:11:34;98331.19;;;27.31;53.04
56863;BME280;42746;49.976;20.182;2022-07-22T09:13:35;98326.72;;;27.22;53.17
56863;BME280;42746;49.976;20.182;2022-07-22T09:15:40;98335.97;;;27.10;53.99
56863;BME280;42746;49.976;20.182;2022-07-22T09:17:46;98327.19;;;27.13;53.94
56863;BME280;42746;49.976;20.182;2022-07-22T09:19:47;98326.09;;;27.16;53.68
56863;BME280;42746;49.976;20.182;2022-07-22T09:21:48;98341.19;;;27.05;53.01
56863;BME280;42746;49.976;20.182;2022-07-22T09:23:49;98338.13;;;27.17;53.36
56863;BME280;42746;49.976;20.182;2022-07-22T09:25:51;98330.97;;;27.29;54.05
56863;BME280;42746;49.976;20.182;2022-07-22T09:27:54;98340.72;;;27.28;52.09
56863;BME280;42746;49.976;20.182;2022-07-22T09:29:56;98338.09;;;27.30;53.58
56863;BME280;42746;49.976;20.182;2022-07-22T09:31:57;98332.22;;;27.41;52.98
56863;BME280;42746;49.976;20.182;2022-07-22T09:33:58;98340.63;;;27.55;51.72
56863;BME280;42746;49.976;20.182;2022-07-22T09:36:02;98338.69;;;27.50;51.34
56863;BME280;42746;49.976;20.182;2022-07-22T09:38:04;98339.91;;;27.41;53.10
56863;BME280;42746;49.976;20.182;2022-07-22T09:40:13;98338.09;;;27.30;53.07
56863;BME280;42746;49.976;20.182;2022-07-22T09:42:15;98334.06;;;27.04;53.90
56863;BME280;42746;49.976;20.182;2022-07-22T09:44:22;98339.81;;;26.99;54.52
56863;BME280;42746;49.976;20.182;2022-07-22T09:46:34;98343.47;;;27.07;56.41
56863;BME280;42746;49.976;20.182;2022-07-22T09:48:36;98336.19;;;27.12;54.50
56863;BME280;42746;49.976;20.182;2022-07-22T09:50:37;98340.66;;;27.07;54.41
56863;BME280;42746;49.976;20.182;2022-07-22T09:52:38;98343.28;;;26.92;54.96
56863;BME280;42746;49.976;20.182;2022-07-22T09:54:41;98341.97;;;26.93;54.98
56863;BME280;42746;49.976;20.182;2022-07-22T09:56:42;98343.81;;;26.90;55.21
56863;BME280;42746;49.976;20.182;2022-07-22T09:58:45;98339.69;;;27.04;54.94
56863;BME280;42746;49.976;20.182;2022-07-22T10:00:46;98347.00;;;27.21;54.03
56863;BME280;42746;49.976;20.182;2022-07-22T10:02:49;98352.22;;;27.17;55.11
56863;BME280;42746;49.976;20.182;2022-07-22T10:04:50;98353.41;;;27.08;54.82
56863;BME280;42746;49.976;20.182;2022-07-22T10:06:54;98342.72;;;27.06;55.80
56863;BME280;42746;49.976;20.182;2022-07-22T10:08:56;98348.97;;;27.26;56.66
56863;BME280;42746;49.976;20.182;2022-07-22T10:10:59;98350.25;;;27.38;56.11
56863;BME280;42746;49.976;20.182;2022-07-22T10:13:02;98355.47;;;27.34;56.17
56863;BME280;42746;49.976;20.182;2022-07-22T10:15:06;98347.66;;;27.27;56.68
56863;BME280;42746;49.976;20.182;2022-07-22T10:17:08;98351.25;;;27.27;56.75
56863;BME280;42746;49.976;20.182;2022-07-22T10:19:29;98347.63;;;27.40;56.48
56863;BME280;42746;49.976;20.182;2022-07-22T10:21:31;98348.03;;;27.44;56.82
56863;BME280;42746;49.976;20.182;2022-07-22T10:23:32;98343.66;;;27.57;56.72
56863;BME280;42746;49.976;20.182;2022-07-22T10:25:49;98350.31;;;27.67;56.50
56863;BME280;42746;49.976;20.182;2022-07-22T10:27:54;98341.53;;;27.71;55.07
56863;BME280;42746;49.976;20.182;2022-07-22T10:29:59;98343.78;;;27.72;54.69
56863;BME280;42746;49.976;20.182;2022-07-22T10:32:24;98340.97;;;27.72;54.25
56863;BME280;42746;49.976;20.182;2022-07-22T10:34:25;98340.63;;;27.55;55.19
56863;BME280;42746;49.976;20.182;2022-07-22T10:36:30;98338.63;;;27.63;56.49